Time;durP1;ratioP1;P1;durP2;ratioP2;P2;SDS_P1;SDS_P2;PMS_P1;PMS_P2;Temp;Humidity;BMP_temperature;BMP_pressure;BME280_temperature;BME280_humidity;BME280_pressure;Samples;Min_cycle;Max_cycle;Signal;HPM_P1;HPM_P2
2021/07/03 00:00:02;;;;;;;16.92;11.05;;;16.90;2.70;;;;;;5119157;27;20433;-67
2021/07/03 00:02:52;;;;;;;15.70;13.10;;;16.90;2.40;;;;;;5114997;27;20051;-68
2021/07/03 00:05:40;;;;;;;13.18;9.73;;;16.80;3.10;;;;;;5122396;27;20524;-67
2021/07/03 00:08:28;;;;;;;15.23;10.45;;;16.70;4.90;;;;;;5122966;27;20043;-67
2021/07/03 00:11:18;;;;;;;17.50;9.95;;;16.70;4.20;;;;;;5115994;27;20043;-67
2021/07/03 00:14:07;;;;;;;13.63;9.93;;;17.00;3.90;;;;;;5117220;27;20039;-67
2021/07/03 00:16:55;;;;;;;15.13;10.50;;;17.10;3.50;;;;;;5118473;27;20421;-66
2021/07/03 00:19:44;;;;;;;14.68;9.77;;;17.40;2.30;;;;;;5121790;27;20047;-69
2021/07/03 00:22:32;;;;;;;16.50;10.40;;;17.20;2.30;;;;;;5115696;27;20418;-67
2021/07/03 00:25:21;;;;;;;14.95;10.15;;;16.80;4.70;;;;;;5106867;27;20724;-66
2021/07/03 00:28:11;;;;;;;12.50;9.35;;;17.10;3.70;;;;;;5117103;27;20553;-68
2021/07/03 00:30:59;;;;;;;17.88;10.80;;;16.60;5.40;;;;;;5120781;27;20139;-68
2021/07/03 00:33:48;;;;;;;15.18;9.95;;;16.50;6.90;;;;;;5118955;27;20035;-66
2021/07/03 00:36:36;;;;;;;15.18;10.55;;;16.80;5.90;;;;;;5122304;27;20083;-67
2021/07/03 00:39:25;;;;;;;16.08;10.15;;;16.60;6.80;;;;;;5098361;27;20047;-70
2021/07/03 00:42:13;;;;;;;15.07;10.43;;;17.00;5.00;;;;;;5102817;27;20039;-70
2021/07/03 00:45:05;;;;;;;17.10;10.13;;;16.70;4.90;;;;;;5116867;27;20104;-70
2021/07/03 00:47:53;;;;;;;16.33;10.13;;;16.60;5.90;;;;;;5119414;27;20055;-70
2021/07/03 00:50:44;;;;;;;14.68;10.02;;;16.60;4.80;;;;;;5118454;27;20055;-70
2021/07/03 00:53:36;;;;;;;11.57;9.30;;;16.40;7.80;;;;;;5101082;27;20051;-69
2021/07/03 00:56:28;;;;;;;14.93;10.23;;;16.20;7.90;;;;;;5119837;27;20074;-70
2021/07/03 00:59:16;;;;;;;13.80;9.88;;;16.40;8.50;;;;;;5114052;27;20127;-70
2021/07/03 01:02:08;;;;;;;14.85;10.57;;;16.20;9.40;;;;;;5103165;27;20053;-70
2021/07/03 01:04:57;;;;;;;13.43;9.93;;;16.10;9.40;;;;;;5099727;27;20054;-70
2021/07/03 01:07:52;;;;;;;12.73;9.57;;;16.00;11.70;;;;;;5118520;27;20043;-70
2021/07/03 01:10:41;;;;;;;12.60;9.70;;;16.40;9.90;;;;;;5101567;27;20078;-69
2021/07/03 01:13:34;;;;;;;16.02;9.93;;;16.50;8.50;;;;;;5100579;27;20320;-70
2021/07/03 01:16:33;;;;;;;13.52;10.27;;;16.50;8.60;;;;;;5107884;27;20046;-69
2021/07/03 01:19:24;;;;;;;16.02;11.23;;;16.40;8.50;;;;;;5109962;27;20051;-70
2021/07/03 01:22:15;;;;;;;18.92;9.90;;;16.10;10.20;;;;;;5099924;27;20050;-70
2021/07/03 01:25:06;;;;;;;16.75;10.60;;;16.60;8.90;;;;;;5119983;27;20050;-70
2021/07/03 01:28:00;;;;;;;15.48;10.35;;;16.30;9.40;;;;;;5162643;27;20127;-70
2021/07/03 01:30:51;;;;;;;14.05;10.43;;;15.70;13.00;;;;;;5126251;27;20202;-69
2021/07/03 01:33:40;;;;;;;17.83;10.43;;;15.70;13.80;;;;;;5142068;27;20043;-70
2021/07/03 01:36:29;;;;;;;16.42;11.43;;;15.60;15.20;;;;;;5121826;27;20114;-70
2021/07/03 01:39:17;;;;;;;20.00;11.93;;;15.50;15.20;;;;;;5132248;27;20707;-70
2021/07/03 01:42:07;;;;;;;17.50;10.02;;;15.40;17.10;;;;;;5116888;27;20479;-69
2021/07/03 01:44:57;;;;;;;15.27;10.43;;;15.80;17.00;;;;;;5141456;27;20498;-70
2021/07/03 01:47:48;;;;;;;13.50;10.82;;;15.90;14.80;;;;;;5135769;27;20408;-70
2021/07/03 01:50:38;;;;;;;15.32;10.82;;;16.00;14.90;;;;;;5137686;27;20116;-70
2021/07/03 01:53:29;;;;;;;16.52;10.77;;;15.90;13.70;;;;;;5119164;27;20059;-70
2021/07/03 01:56:22;;;;;;;16.77;10.68;;;15.70;16.00;;;;;;5136819;27;20490;-70
2021/07/03 01:59:11;;;;;;;15.73;10.82;;;15.90;14.90;;;;;;5135533;27;20513;-70
2021/07/03 02:02:16;;;;;;;16.50;10.97;;;16.00;12.00;;;;;;5117676;27;20054;-71
2021/07/03 02:05:10;;;;;;;17.73;10.65;;;16.10;14.70;;;;;;5121906;27;20471;-72
2021/07/03 02:07:58;;;;;;;14.15;10.35;;;16.40;12.20;;;;;;5122780;27;20490;-72
2021/07/03 02:10:48;;;;;;;17.13;11.68;;;16.30;12.10;;;;;;5122943;27;20428;-70
2021/07/03 02:13:37;;;;;;;15.20;10.90;;;16.00;13.30;;;;;;5117047;27;20039;-71
2021/07/03 02:16:26;;;;;;;15.13;10.50;;;16.00;14.20;;;;;;5122700;27;20190;-70
2021/07/03 02:19:20;;;;;;;15.38;11.68;;;15.90;12.80;;;;;;5119943;27;20054;-70
2021/07/03 02:22:09;;;;;;;15.68;11.05;;;15.80;14.60;;;;;;5115878;27;20043;-71
2021/07/03 02:25:06;;;;;;;15.90;11.40;;;15.50;15.80;;;;;;5134593;27;20589;-70
2021/07/03 02:27:57;;;;;;;14.95;11.40;;;15.30;17.10;;;;;;5117131;27;20050;-71
2021/07/03 02:30:46;;;;;;;17.30;11.50;;;15.50;16.60;;;;;;5135753;27;20046;-70
2021/07/03 02:33:36;;;;;;;17.60;11.65;;;15.40;16.60;;;;;;5116939;27;20135;-70
2021/07/03 02:36:28;;;;;;;16.10;10.98;;;15.50;17.50;;;;;;5123890;27;20379;-71
2021/07/03 02:39:19;;;;;;;17.17;12.00;;;15.80;16.10;;;;;;5108295;27;20074;-70
2021/07/03 02:42:12;;;;;;;18.08;10.88;;;15.80;14.60;;;;;;5107182;27;20047;-69
2021/07/03 02:45:03;;;;;;;18.98;11.82;;;15.70;14.80;;;;;;5107942;27;20582;-70
2021/07/03 02:47:53;;;;;;;14.50;10.68;;;15.60;15.70;;;;;;5122558;27;20039;-70
2021/07/03 02:50:42;;;;;;;16.02;10.63;;;16.00;15.60;;;;;;5121193;27;20046;-71
2021/07/03 02:53:32;;;;;;;20.35;11.43;;;15.80;15.40;;;;;;5104438;27;20046;-71
2021/07/03 02:56:21;;;;;;;16.65;10.57;;;15.60;15.30;;;;;;5121126;27;20126;-71
2021/07/03 02:59:10;;;;;;;14.20;10.63;;;15.70;17.00;;;;;;5117892;27;20088;-71
2021/07/03 03:01:59;;;;;;;16.23;11.02;;;15.40;17.20;;;;;;5108964;27;20114;-71
2021/07/03 03:04:47;;;;;;;16.42;11.23;;;15.20;17.30;;;;;;5108537;27;20040;-70
2021/07/03 03:07:37;;;;;;;14.77;10.20;;;15.10;19.10;;;;;;5120060;27;20229;-70
2021/07/03 03:10:27;;;;;;;14.90;10.88;;;15.60;17.80;;;;;;5092417;27;20051;-70
2021/07/03 03:13:15;;;;;;;14.98;10.50;;;15.50;16.50;;;;;;5102043;27;20082;-70
2021/07/03 03:16:05;;;;;;;15.30;10.48;;;15.30;17.00;;;;;;5108498;27;20047;-70
2021/07/03 03:18:53;;;;;;;15.95;11.10;;;15.20;18.90;;;;;;5104885;27;20088;-69
2021/07/03 03:21:44;;;;;;;15.13;11.20;;;15.30;18.60;;;;;;5120681;27;20316;-71
2021/07/03 03:24:32;;;;;;;13.73;10.10;;;15.50;16.00;;;;;;5107176;27;20383;-72
2021/07/03 03:27:22;;;;;;;14.13;10.38;;;15.70;16.40;;;;;;5108327;27;20043;-71
2021/07/03 03:30:12;;;;;;;14.50;10.63;;;15.40;16.20;;;;;;5117857;27;20039;-70
2021/07/03 03:33:04;;;;;;;14.88;10.30;;;15.50;16.60;;;;;;5122973;27;20053;-70
2021/07/03 03:35:53;;;;;;;17.13;10.52;;;15.40;17.60;;;;;;5104507;27;20130;-70
2021/07/03 03:38:42;;;;;;;14.10;10.77;;;15.50;15.50;;;;;;5121211;27;20065;-70
2021/07/03 03:41:30;;;;;;;15.27;10.20;;;15.40;17.50;;;;;;5124071;27;20041;-70
2021/07/03 03:44:22;;;;;;;16.55;10.63;;;15.20;18.60;;;;;;5117979;27;20055;-70
2021/07/03 03:47:12;;;;;;;12.55;9.30;;;15.50;16.20;;;;;;5110031;27;20054;-71
2021/07/03 03:50:01;;;;;;;15.60;9.25;;;15.70;14.80;;;;;;5100522;27;20051;-70
2021/07/03 03:52:50;;;;;;;11.60;8.40;;;16.00;11.80;;;;;;5102560;27;20120;-70
2021/07/03 03:55:39;;;;;;;15.07;9.23;;;16.00;10.10;;;;;;5121701;27;20047;-70
2021/07/03 03:58:30;;;;;;;11.40;8.00;;;16.10;8.70;;;;;;5107906;27;20043;-71
2021/07/03 04:01:19;;;;;;;12.48;8.45;;;15.70;9.90;;;;;;5119890;27;20035;-71
2021/07/03 04:04:08;;;;;;;11.10;8.40;;;15.70;11.40;;;;;;5105651;27;20050;-70
2021/07/03 04:06:57;;;;;;;11.00;8.48;;;16.30;9.10;;;;;;5105719;27;20061;-68
2021/07/03 04:09:45;;;;;;;11.77;8.27;;;16.90;5.00;;;;;;5117326;27;20540;-70
2021/07/03 04:12:35;;;;;;;11.25;8.48;;;16.90;3.40;;;;;;5103921;27;20051;-70
2021/07/03 04:15:24;;;;;;;13.45;8.13;;;16.60;5.80;;;;;;5118989;27;20056;-70
2021/07/03 04:18:14;;;;;;;10.85;7.82;;;15.90;8.10;;;;;;5123198;27;20044;-70
2021/07/03 04:21:03;;;;;;;10.98;8.20;;;16.00;9.30;;;;;;5117122;27;20051;-70
2021/07/03 04:23:51;;;;;;;12.32;8.35;;;15.70;10.60;;;;;;5117372;27;20176;-70
2021/07/03 04:26:40;;;;;;;11.40;8.43;;;16.40;8.60;;;;;;5124381;27;20046;-69
2021/07/03 04:29:28;;;;;;;13.90;9.23;;;17.20;2.20;;;;;;5117154;27;20047;-69
2021/07/03 04:32:16;;;;;;;9.18;7.75;;;17.50;1.00;;;;;;5118610;27;20043;-71
2021/07/03 04:35:08;;;;;;;9.98;8.05;;;19.20;1.00;;;;;;5120062;27;20129;-70
2021/07/03 04:37:57;;;;;;;11.20;7.70;;;19.30;1.00;;;;;;5122858;27;20172;-71
2021/07/03 04:40:45;;;;;;;15.35;9.15;;;20.30;1.00;;;;;;5114692;27;20055;-71
2021/07/03 04:43:33;;;;;;;9.95;7.78;;;19.90;1.00;;;;;;5121176;27;20058;-70
2021/07/03 04:46:22;;;;;;;11.30;7.90;;;20.30;1.00;;;;;;5103494;27;20053;-70
2021/07/03 04:49:11;;;;;;;13.77;7.82;;;20.90;1.00;;;;;;5119465;27;20051;-71
2021/07/03 04:52:01;;;;;;;11.40;8.30;;;19.60;1.00;;;;;;5119834;27;20043;-70
2021/07/03 04:54:50;;;;;;;13.10;8.15;;;19.90;1.00;;;;;;5123545;27;20494;-69
2021/07/03 04:57:38;;;;;;;13.50;7.70;;;19.70;1.00;;;;;;5121767;27;20047;-69
2021/07/03 05:00:27;;;;;;;15.80;8.55;;;19.60;1.00;;;;;;5101333;27;20043;-70
2021/07/03 05:03:15;;;;;;;11.82;8.30;;;20.10;1.00;;;;;;5117377;27;20039;-70
2021/07/03 05:06:04;;;;;;;15.80;8.25;;;20.50;1.00;;;;;;5121445;27;20047;-70
2021/07/03 05:08:54;;;;;;;10.63;7.53;;;21.10;1.00;;;;;;5118990;27;20402;-70
2021/07/03 05:11:42;;;;;;;12.10;8.40;;;21.00;1.00;;;;;;5120731;27;20134;-70
2021/07/03 05:14:30;;;;;;;10.07;7.63;;;20.80;1.00;;;;;;5119103;27;20116;-69
2021/07/03 05:17:19;;;;;;;10.43;8.40;;;20.90;1.00;;;;;;5119741;27;20039;-70
2021/07/03 05:20:09;;;;;;;11.77;8.13;;;20.90;1.00;;;;;;5114045;27;20069;-70
2021/07/03 05:22:57;;;;;;;10.35;8.30;;;21.20;1.00;;;;;;5119996;27;20049;-70
2021/07/03 05:25:47;;;;;;;11.75;8.35;;;21.70;1.00;;;;;;5120944;28;20063;-70
2021/07/03 05:28:35;;;;;;;12.20;8.43;;;21.20;1.00;;;;;;5118838;28;20096;-69
2021/07/03 05:31:24;;;;;;;11.90;8.32;;;21.50;1.00;;;;;;5118478;28;20162;-69
2021/07/03 05:34:12;;;;;;;13.73;8.70;;;21.30;1.00;;;;;;5116150;27;20113;-71
2021/07/03 05:37:01;;;;;;;12.38;8.30;;;21.30;1.00;;;;;;5122020;27;20082;-70
2021/07/03 05:39:49;;;;;;;10.48;8.05;;;21.70;1.00;;;;;;5104387;28;20047;-70
2021/07/03 05:42:40;;;;;;;11.05;8.10;;;21.00;1.00;;;;;;5099501;28;20161;-70
2021/07/03 05:45:29;;;;;;;11.65;8.25;;;21.30;1.00;;;;;;5103457;28;20046;-70
2021/07/03 05:48:18;;;;;;;11.45;7.30;;;21.90;1.00;;;;;;5120739;28;20047;-70
2021/07/03 05:51:06;;;;;;;10.55;8.23;;;21.70;1.00;;;;;;5119797;28;20047;-69
2021/07/03 05:53:56;;;;;;;11.55;7.82;;;21.00;1.00;;;;;;5118603;28;20054;-70
2021/07/03 05:56:44;;;;;;;11.63;8.77;;;20.90;1.00;;;;;;5124039;27;20113;-70
2021/07/03 05:59:34;;;;;;;13.55;7.20;;;21.80;1.00;;;;;;5097875;28;20135;-70
2021/07/03 06:02:22;;;;;;;12.75;7.68;;;21.60;1.00;;;;;;5118323;27;20043;-70
2021/07/03 06:05:11;;;;;;;9.52;7.78;;;21.50;1.00;;;;;;5116742;27;20110;-69
2021/07/03 06:07:59;;;;;;;10.32;7.38;;;21.70;1.00;;;;;;5120733;28;20051;-69
2021/07/03 06:10:48;;;;;;;11.48;7.93;;;21.10;1.00;;;;;;5115177;28;20045;-69
2021/07/03 06:13:36;;;;;;;10.93;8.05;;;20.10;1.00;;;;;;5120137;27;20047;-69
2021/07/03 06:16:26;;;;;;;9.77;7.57;;;19.40;1.00;;;;;;5123639;27;20121;-69
2021/07/03 06:19:15;;;;;;;10.85;7.40;;;19.40;1.00;;;;;;5124845;27;20141;-70
2021/07/03 06:22:04;;;;;;;9.52;6.55;;;19.80;1.00;;;;;;5107825;27;20513;-69
2021/07/03 06:24:52;;;;;;;8.85;7.00;;;19.50;1.00;;;;;;5121088;27;20047;-69
2021/07/03 06:27:41;;;;;;;11.18;7.25;;;19.80;1.00;;;;;;5123818;27;20047;-70
2021/07/03 06:30:29;;;;;;;9.65;6.57;;;19.90;1.00;;;;;;5120622;27;20631;-69
2021/07/03 06:33:19;;;;;;;10.15;7.50;;;20.00;1.00;;;;;;5117337;27;20050;-69
2021/07/03 06:36:07;;;;;;;11.00;6.93;;;20.20;1.00;;;;;;5123735;27;20055;-70
2021/07/03 06:38:56;;;;;;;9.27;6.90;;;20.90;1.00;;;;;;5118693;27;20042;-70
2021/07/03 06:41:44;;;;;;;8.40;6.57;;;21.80;1.00;;;;;;5124390;27;20066;-70
2021/07/03 06:44:33;;;;;;;8.25;6.55;;;22.20;1.00;;;;;;5118264;27;20090;-69
2021/07/03 06:47:21;;;;;;;10.50;7.00;;;21.90;1.00;;;;;;5124804;27;20055;-70
2021/07/03 06:50:12;;;;;;;8.13;6.93;;;21.30;1.00;;;;;;5123458;27;20517;-70
2021/07/03 06:53:00;;;;;;;9.55;6.60;;;20.90;1.00;;;;;;5117058;27;20082;-70
2021/07/03 06:55:49;;;;;;;8.93;6.28;;;21.30;1.00;;;;;;5120420;27;20042;-70
2021/07/03 06:58:37;;;;;;;9.27;7.22;;;21.60;1.00;;;;;;5118103;27;20624;-69
2021/07/03 07:01:26;;;;;;;9.77;7.18;;;20.60;1.00;;;;;;5119255;27;20046;-69
2021/07/03 07:04:14;;;;;;;9.82;6.68;;;20.90;1.00;;;;;;5120247;27;20058;-70
2021/07/03 07:07:04;;;;;;;14.68;7.28;;;20.80;1.00;;;;;;5122598;27;20429;-70
2021/07/03 07:09:53;;;;;;;8.88;6.65;;;20.90;1.00;;;;;;5116099;27;20129;-69
2021/07/03 07:12:41;;;;;;;11.70;6.53;;;21.30;1.00;;;;;;5100783;27;20142;-70
2021/07/03 07:15:32;;;;;;;8.45;6.68;;;21.00;1.00;;;;;;5121447;27;20047;-70
2021/07/03 07:18:20;;;;;;;12.70;6.82;;;20.90;1.00;;;;;;5121368;27;20054;-69
2021/07/03 07:21:10;;;;;;;9.32;6.60;;;21.40;1.00;;;;;;5106443;27;20047;-70
2021/07/03 07:24:00;;;;;;;11.13;6.13;;;21.40;1.00;;;;;;5102847;27;20040;-70
2021/07/03 07:26:49;;;;;;;7.28;6.05;;;21.60;1.00;;;;;;5123392;27;20043;-70
2021/07/03 07:29:37;;;;;;;9.18;6.97;;;21.30;1.00;;;;;;5118079;27;20050;-70
2021/07/03 07:32:31;;;;;;;10.37;6.97;;;20.80;1.00;;;;;;5118205;27;20055;-70
2021/07/03 07:35:20;;;;;;;12.07;6.63;;;21.10;1.00;;;;;;5123038;27;20050;-70
2021/07/03 07:38:08;;;;;;;8.73;6.32;;;21.50;1.00;;;;;;5124573;27;20061;-69
2021/07/03 07:40:58;;;;;;;8.88;6.47;;;21.60;1.00;;;;;;5122410;27;20125;-68
2021/07/03 07:43:47;;;;;;;7.55;6.03;;;21.70;1.00;;;;;;5116221;27;20039;-70
2021/07/03 07:46:35;;;;;;;9.20;6.68;;;21.80;1.00;;;;;;5123786;27;20410;-70
2021/07/03 07:49:23;;;;;;;8.10;5.70;;;22.00;1.00;;;;;;5120775;27;20098;-70
2021/07/03 07:52:12;;;;;;;9.00;6.20;;;22.10;1.00;;;;;;5106280;27;20079;-70
2021/07/03 07:55:01;;;;;;;6.18;5.47;;;22.00;1.00;;;;;;5122398;27;20046;-70
2021/07/03 07:57:50;;;;;;;7.78;5.97;;;22.20;1.00;;;;;;5120831;27;20134;-71
2021/07/03 08:00:39;;;;;;;6.30;5.45;;;22.00;1.00;;;;;;5116393;27;20047;-70
2021/07/03 08:03:27;;;;;;;6.63;5.22;;;22.60;1.00;;;;;;5118003;27;20085;-70
2021/07/03 08:06:21;;;;;;;7.50;5.63;;;22.20;1.00;;;;;;5123581;27;20554;-71
2021/07/03 08:09:12;;;;;;;7.43;5.78;;;21.80;1.00;;;;;;5120585;27;20498;-70
2021/07/03 08:12:01;;;;;;;6.40;5.32;;;21.90;1.00;;;;;;5121880;27;20115;-69
2021/07/03 08:14:50;;;;;;;9.57;5.78;;;22.40;1.00;;;;;;5118551;27;20067;-71
2021/07/03 08:17:43;;;;;;;6.90;5.68;;;22.50;1.00;;;;;;5122933;27;20059;-70
2021/07/03 08:20:33;;;;;;;8.20;5.45;;;22.60;1.00;;;;;;5102294;27;20035;-70
2021/07/03 08:23:22;;;;;;;6.78;5.00;;;22.50;1.00;;;;;;5115578;27;20110;-70
2021/07/03 08:26:10;;;;;;;7.13;4.97;;;22.60;1.00;;;;;;5123442;27;20048;-70
2021/07/03 08:28:59;;;;;;;8.70;5.28;;;22.50;1.00;;;;;;5115883;27;20039;-71
2021/07/03 08:31:48;;;;;;;5.90;4.72;;;22.80;1.00;;;;;;5119950;27;20215;-70
2021/07/03 08:34:37;;;;;;;5.95;4.90;;;23.40;1.00;;;;;;5120514;27;20134;-70
2021/07/03 08:37:25;;;;;;;6.35;5.10;;;23.10;1.00;;;;;;5103972;27;20604;-70
2021/07/03 08:40:15;;;;;;;8.82;5.80;;;23.50;1.00;;;;;;5115704;27;20035;-70
2021/07/03 08:43:04;;;;;;;5.95;5.03;;;23.40;1.00;;;;;;5116655;27;20059;-71
2021/07/03 08:45:57;;;;;;;6.82;4.88;;;23.50;1.00;;;;;;5124325;27;20035;-69
2021/07/03 08:48:50;;;;;;;7.45;5.30;;;23.90;1.00;;;;;;5106828;27;20051;-70
2021/07/03 08:51:41;;;;;;;6.95;5.38;;;23.90;1.00;;;;;;5118063;27;20031;-71
2021/07/03 08:54:29;;;;;;;5.07;4.35;;;24.50;1.00;;;;;;5119585;27;20046;-71
2021/07/03 08:57:18;;;;;;;5.40;4.80;;;24.20;1.00;;;;;;5122459;27;20054;-71
2021/07/03 09:00:07;;;;;;;7.00;5.00;;;24.10;1.00;;;;;;5113230;27;20043;-70
2021/07/03 09:02:56;;;;;;;5.57;4.97;;;23.90;1.00;;;;;;5102397;27;20062;-69
2021/07/03 09:05:49;;;;;;;5.30;4.63;;;23.80;1.00;;;;;;5120950;27;20108;-70
2021/07/03 09:08:38;;;;;;;6.63;5.22;;;24.20;1.00;;;;;;5119746;27;20055;-70
2021/07/03 09:11:26;;;;;;;6.72;4.68;;;24.50;1.00;;;;;;5120767;27;20047;-70
2021/07/03 09:14:15;;;;;;;7.13;4.85;;;24.60;1.00;;;;;;5115853;27;20043;-70
2021/07/03 09:17:04;;;;;;;5.88;4.85;;;24.30;1.00;;;;;;5122591;27;20421;-71
2021/07/03 09:19:53;;;;;;;5.63;5.05;;;24.50;1.00;;;;;;5117701;27;20482;-70
2021/07/03 09:22:42;;;;;;;6.72;4.95;;;23.90;1.00;;;;;;5117656;27;20043;-70
2021/07/03 09:25:32;;;;;;;7.25;5.35;;;24.20;1.00;;;;;;5118235;28;20070;-71
2021/07/03 09:28:22;;;;;;;7.75;5.40;;;24.20;1.00;;;;;;5120816;27;20047;-70
2021/07/03 09:31:13;;;;;;;6.22;4.57;;;24.50;1.00;;;;;;5105190;27;20047;-70
2021/07/03 09:34:01;;;;;;;5.00;4.47;;;24.90;1.00;;;;;;5118980;28;20675;-70
2021/07/03 09:36:50;;;;;;;5.38;4.15;;;25.00;1.00;;;;;;5119450;27;20047;-69
2021/07/03 09:39:39;;;;;;;7.03;4.43;;;24.80;1.00;;;;;;5114813;27;20497;-69
2021/07/03 09:42:34;;;;;;;6.15;4.35;;;24.90;1.00;;;;;;5118014;28;20063;-70
2021/07/03 09:45:24;;;;;;;5.93;5.05;;;25.20;1.00;;;;;;5125115;27;20039;-70
2021/07/03 09:48:13;;;;;;;9.15;4.43;;;25.20;1.00;;;;;;5125358;27;20050;-71
2021/07/03 09:51:09;;;;;;;5.13;4.63;;;24.80;1.00;;;;;;5120393;27;20954;-69
2021/07/03 09:53:59;;;;;;;5.90;5.05;;;25.10;1.00;;;;;;5121206;27;20050;-71
2021/07/03 09:56:58;;;;;;;5.78;5.00;;;24.50;1.00;;;;;;5107169;27;20039;-69
2021/07/03 09:59:47;;;;;;;8.13;4.95;;;24.60;1.00;;;;;;5117172;27;20111;-70
2021/07/03 10:02:36;;;;;;;8.27;4.75;;;24.40;1.00;;;;;;5106428;27;20039;-70
2021/07/03 10:05:26;;;;;;;5.90;5.03;;;24.60;1.00;;;;;;5123804;27;20506;-70
2021/07/03 10:08:19;;;;;;;6.35;5.18;;;24.70;1.00;;;;;;5107827;27;20574;-70
2021/07/03 10:11:11;;;;;;;5.93;4.97;;;25.00;1.00;;;;;;5124539;27;20116;-70
2021/07/03 10:14:03;;;;;;;7.43;4.80;;;24.80;1.00;;;;;;5117164;27;20062;-70
2021/07/03 10:17:01;;;;;;;8.07;5.15;;;25.30;1.00;;;;;;5108746;27;20073;-70
2021/07/03 10:19:51;;;;;;;5.45;4.65;;;25.50;1.00;;;;;;5118307;27;20039;-70
2021/07/03 10:22:40;;;;;;;5.68;4.90;;;25.50;1.00;;;;;;5119699;27;20436;-69
2021/07/03 10:25:33;;;;;;;5.95;5.22;;;25.60;1.00;;;;;;5107613;27;20426;-70
2021/07/03 10:28:32;;;;;;;6.15;4.97;;;25.50;1.00;;;;;;5095614;27;20054;-70
2021/07/03 10:31:33;;;;;;;6.90;4.72;;;25.50;1.00;;;;;;5106107;27;20062;-71
2021/07/03 10:34:30;;;;;;;6.50;4.80;;;25.60;1.00;;;;;;5117932;27;20111;-71
2021/07/03 10:37:32;;;;;;;6.38;4.50;;;25.60;1.00;;;;;;5121224;27;20441;-69
2021/07/03 10:40:23;;;;;;;6.80;4.82;;;25.50;1.00;;;;;;5105200;27;20518;-70
2021/07/03 10:43:14;;;;;;;6.05;4.80;;;25.30;1.00;;;;;;5118088;27;20051;-71
2021/07/03 10:46:03;;;;;;;7.82;4.60;;;25.80;1.00;;;;;;5121482;27;20044;-69
2021/07/03 10:48:57;;;;;;;6.50;4.53;;;26.10;1.00;;;;;;5124172;27;20039;-70
2021/07/03 10:51:47;;;;;;;7.40;4.65;;;25.80;1.00;;;;;;5108300;27;20761;-70
2021/07/03 10:54:36;;;;;;;7.63;4.43;;;25.70;1.00;;;;;;5106856;27;20112;-71
2021/07/03 10:57:26;;;;;;;6.57;4.35;;;26.20;1.00;;;;;;5124500;27;20133;-71
2021/07/03 11:00:23;;;;;;;5.38;4.38;;;26.30;1.00;;;;;;5121701;27;20054;-70
2021/07/03 11:03:15;;;;;;;7.03;4.72;;;26.20;1.00;;;;;;5116850;27;20438;-70
2021/07/03 11:06:13;;;;;;;9.90;4.63;;;25.70;1.00;;;;;;5106200;27;20051;-70
2021/07/03 11:09:02;;;;;;;7.22;4.78;;;26.00;1.00;;;;;;5087881;27;20512;-71
2021/07/03 11:11:52;;;;;;;7.28;4.18;;;26.30;1.00;;;;;;5104004;27;20043;-70
2021/07/03 11:14:49;;;;;;;5.55;4.45;;;26.60;1.00;;;;;;5097197;27;20103;-71
2021/07/03 11:17:38;;;;;;;7.13;4.22;;;25.80;1.00;;;;;;5094943;27;20046;-69
2021/07/03 11:20:28;;;;;;;4.90;4.50;;;26.20;1.00;;;;;;5102089;27;20043;-70
2021/07/03 11:23:21;;;;;;;5.60;4.55;;;26.60;1.00;;;;;;5118280;27;20467;-70
2021/07/03 11:26:11;;;;;;;4.57;4.13;;;26.40;1.00;;;;;;5110097;27;20096;-70
2021/07/03 11:29:01;;;;;;;4.55;4.15;;;26.00;1.00;;;;;;5115981;27;20054;-70
2021/07/03 11:31:50;;;;;;;4.88;4.15;;;26.00;1.00;;;;;;5120750;27;20437;-70
2021/07/03 11:34:39;;;;;;;5.28;4.30;;;26.30;1.00;;;;;;5120704;27;20048;-70
2021/07/03 11:37:30;;;;;;;6.00;4.75;;;26.50;1.00;;;;;;5121400;27;20051;-70
2021/07/03 11:40:23;;;;;;;6.88;4.18;;;25.90;1.00;;;;;;5100264;27;20043;-71
2021/07/03 11:43:11;;;;;;;5.03;4.25;;;25.80;1.00;;;;;;5117375;27;20071;-69
2021/07/03 11:46:03;;;;;;;5.60;4.53;;;25.30;1.00;;;;;;5107003;27;20057;-70
2021/07/03 11:48:52;;;;;;;7.18;4.43;;;25.90;1.00;;;;;;5115962;27;20051;-70
2021/07/03 11:51:43;;;;;;;5.68;4.47;;;25.70;1.00;;;;;;5117159;27;20058;-70
2021/07/03 11:54:31;;;;;;;5.13;4.63;;;25.70;1.00;;;;;;5116986;27;20039;-69
2021/07/03 11:57:21;;;;;;;5.55;4.65;;;25.70;1.00;;;;;;5120893;27;20542;-71
2021/07/03 12:00:15;;;;;;;5.43;4.18;;;25.50;1.00;;;;;;5111876;27;20081;-70
2021/07/03 12:03:09;;;;;;;6.68;4.70;;;26.00;1.00;;;;;;5111696;27;20072;-70
2021/07/03 12:05:59;;;;;;;7.93;4.20;;;26.10;1.00;;;;;;5113006;27;20367;-70
2021/07/03 12:08:48;;;;;;;5.68;4.45;;;25.80;1.00;;;;;;5116482;27;20070;-70
2021/07/03 12:11:38;;;;;;;7.75;4.35;;;26.10;1.00;;;;;;5119528;27;20054;-71
2021/07/03 12:14:28;;;;;;;6.32;4.97;;;25.40;1.00;;;;;;5113411;27;20039;-70
2021/07/03 12:17:19;;;;;;;4.47;4.03;;;26.00;1.00;;;;;;5122334;27;20046;-70
2021/07/03 12:20:10;;;;;;;4.22;3.83;;;25.90;1.00;;;;;;5117483;27;20046;-69
2021/07/03 12:23:01;;;;;;;4.28;3.88;;;25.70;1.00;;;;;;5116555;27;20047;-70
2021/07/03 12:25:51;;;;;;;4.53;3.65;;;25.90;1.00;;;;;;5115719;27;20409;-70
2021/07/03 12:28:51;;;;;;;5.55;4.07;;;26.10;1.00;;;;;;5111898;27;20051;-69
2021/07/03 12:31:42;;;;;;;6.03;4.32;;;26.20;1.00;;;;;;5120226;27;20042;-70
2021/07/03 12:34:37;;;;;;;5.38;3.67;;;26.40;1.00;;;;;;5118924;27;20058;-70
2021/07/03 12:37:25;;;;;;;3.80;3.42;;;26.10;1.00;;;;;;5117472;27;20050;-71
2021/07/03 12:40:16;;;;;;;5.05;4.30;;;26.10;1.00;;;;;;5116080;27;20050;-70
2021/07/03 12:43:05;;;;;;;5.93;3.95;;;26.20;1.00;;;;;;5119764;27;20055;-70
2021/07/03 12:46:00;;;;;;;4.43;3.60;;;26.60;1.00;;;;;;5118705;27;20514;-70
2021/07/03 12:48:53;;;;;;;4.53;3.92;;;26.60;1.00;;;;;;5121342;27;20058;-70
2021/07/03 12:51:42;;;;;;;5.15;4.05;;;26.20;1.00;;;;;;5121821;27;20432;-70
2021/07/03 12:54:31;;;;;;;6.65;4.00;;;25.90;1.00;;;;;;5116485;27;20039;-70
2021/07/03 12:57:19;;;;;;;7.28;4.20;;;25.30;1.00;;;;;;5122805;27;20057;-70
2021/07/03 13:00:08;;;;;;;6.68;4.10;;;25.70;1.00;;;;;;5119874;27;20072;-69
2021/07/03 13:02:57;;;;;;;6.55;4.28;;;26.10;1.00;;;;;;5114588;27;20047;-69
2021/07/03 13:05:49;;;;;;;6.43;4.03;;;26.10;1.00;;;;;;5118829;27;20046;-71
2021/07/03 13:08:38;;;;;;;3.92;3.53;;;26.40;1.00;;;;;;5119223;27;20053;-70
2021/07/03 13:11:28;;;;;;;4.47;3.75;;;26.50;1.00;;;;;;5117724;27;20139;-70
2021/07/03 13:14:16;;;;;;;5.82;4.05;;;26.50;1.00;;;;;;5119155;27;20039;-69
2021/07/03 13:17:05;;;;;;;4.75;3.63;;;26.50;1.00;;;;;;5121337;27;20058;-71
2021/07/03 13:19:53;;;;;;;5.45;3.83;;;26.40;1.00;;;;;;5117088;27;20043;-69
2021/07/03 13:22:43;;;;;;;5.53;3.95;;;26.00;1.00;;;;;;5112662;27;20115;-70
2021/07/03 13:25:32;;;;;;;4.95;4.07;;;25.70;1.00;;;;;;5103915;27;20051;-70
2021/07/03 13:28:20;;;;;;;5.03;4.00;;;26.00;1.00;;;;;;5119068;27;20494;-70
2021/07/03 13:31:09;;;;;;;7.40;3.95;;;26.70;1.00;;;;;;5112470;28;20062;-70
2021/07/03 13:33:57;;;;;;;4.60;3.70;;;26.80;1.00;;;;;;5116795;28;20035;-71
2021/07/03 13:36:47;;;;;;;4.85;4.28;;;26.70;1.00;;;;;;5119467;27;20051;-70
2021/07/03 13:39:36;;;;;;;5.30;3.83;;;26.60;1.00;;;;;;5113820;27;20046;-70
2021/07/03 13:42:25;;;;;;;4.85;3.40;;;26.40;1.00;;;;;;5117433;28;20055;-69
2021/07/03 13:45:14;;;;;;;4.65;3.75;;;26.70;1.00;;;;;;5119221;28;20409;-70
2021/07/03 13:48:03;;;;;;;11.65;3.92;;;26.60;1.00;;;;;;5119345;27;20051;-71
2021/07/03 13:50:51;;;;;;;4.63;3.97;;;26.40;1.00;;;;;;5118138;27;20528;-71
2021/07/03 13:53:40;;;;;;;3.83;3.53;;;26.60;1.00;;;;;;5112082;28;20180;-70
2021/07/03 13:56:33;;;;;;;5.25;4.03;;;26.70;1.00;;;;;;5122148;28;20036;-70
2021/07/03 13:59:22;;;;;;;3.75;3.45;;;27.20;1.00;;;;;;5115602;27;20089;-69
2021/07/03 14:02:10;;;;;;;9.13;3.92;;;27.40;1.00;;;;;;5118468;27;20394;-69
2021/07/03 14:04:59;;;;;;;4.63;4.00;;;27.60;1.00;;;;;;5118615;27;20058;-70
2021/07/03 14:07:47;;;;;;;3.92;3.53;;;26.80;1.00;;;;;;5119382;28;20161;-70
2021/07/03 14:10:35;;;;;;;5.50;3.83;;;26.50;1.00;;;;;;5112039;28;20057;-71
2021/07/03 14:13:26;;;;;;;6.93;3.85;;;26.80;1.00;;;;;;5102786;28;20070;-69
2021/07/03 14:16:14;;;;;;;4.43;4.03;;;27.20;1.00;;;;;;5118752;27;20497;-70
2021/07/03 14:19:03;;;;;;;4.43;3.63;;;27.50;1.00;;;;;;5117761;28;20048;-71
2021/07/03 14:21:52;;;;;;;4.70;3.90;;;27.10;1.00;;;;;;5121237;28;20047;-70
2021/07/03 14:24:40;;;;;;;4.90;3.95;;;27.30;1.00;;;;;;5121647;27;20065;-70
2021/07/03 14:27:29;;;;;;;4.15;3.75;;;27.10;1.00;;;;;;5121815;27;20050;-70
2021/07/03 14:30:19;;;;;;;3.90;3.47;;;27.00;1.00;;;;;;5115686;28;20973;-70
2021/07/03 14:33:08;;;;;;;6.13;4.15;;;26.70;1.00;;;;;;5117097;27;20098;-70
2021/07/03 14:35:56;;;;;;;5.78;4.10;;;26.60;1.00;;;;;;5123348;27;20050;-70
2021/07/03 14:38:45;;;;;;;7.07;3.78;;;26.40;1.00;;;;;;5124346;27;20502;-70
2021/07/03 14:41:33;;;;;;;4.72;4.03;;;26.50;1.00;;;;;;5120876;27;20047;-70
2021/07/03 14:44:21;;;;;;;4.50;3.70;;;26.80;1.00;;;;;;5117193;27;20031;-69